Time;durP1;ratioP1;P1;durP2;ratioP2;P2;SDS_P1;SDS_P2;PMS_P1;PMS_P2;Temp;Humidity;BMP_temperature;BMP_pressure;BME280_temperature;BME280_humidity;BME280_pressure;Samples;Min_cycle;Max_cycle;Signal;HPM_P1;HPM_P2
2023/12/20 00:01:32;;;;;;;21.85;3.67;;;;;;;;;;5025458;28;20125;-81
2023/12/20 00:03:58;;;;;;;29.45;3.85;;;;;;;;;;5029267;28;20037;-81
2023/12/20 00:06:24;;;;;;;25.45;3.38;;;;;;;;;;5014716;28;20378;-80
2023/12/20 00:08:50;;;;;;;19.50;3.60;;;;;;;;;;5009797;28;20042;-81
2023/12/20 00:11:16;;;;;;;26.25;3.50;;;;;;;;;;5022444;28;20021;-81
2023/12/20 00:13:42;;;;;;;23.05;3.25;;;;;;;;;;5026231;28;20359;-81
2023/12/20 00:16:10;;;;;;;25.55;3.47;;;;;;;;;;5019650;28;20013;-81
2023/12/20 00:18:36;;;;;;;29.27;3.88;;;;;;;;;;5030419;28;20017;-81
2023/12/20 00:21:02;;;;;;;30.55;3.75;;;;;;;;;;5019493;28;20337;-81
2023/12/20 00:23:28;;;;;;;19.85;3.38;;;;;;;;;;5007227;28;20014;-81
2023/12/20 00:25:54;;;;;;;22.50;3.58;;;;;;;;;;5015376;28;20373;-82
2023/12/20 00:28:20;;;;;;;24.33;3.92;;;;;;;;;;5009405;28;20076;-79
2023/12/20 00:30:46;;;;;;;28.90;3.15;;;;;;;;;;5030089;28;20014;-81
2023/12/20 00:33:12;;;;;;;32.33;3.30;;;;;;;;;;5016829;28;20064;-81
2023/12/20 00:35:38;;;;;;;28.90;4.10;;;;;;;;;;5015482;28;20013;-81
2023/12/20 00:38:06;;;;;;;21.63;3.03;;;;;;;;;;5028282;28;20374;-81
2023/12/20 00:40:33;;;;;;;21.77;2.72;;;;;;;;;;5028897;28;20025;-81
2023/12/20 00:42:59;;;;;;;25.25;3.30;;;;;;;;;;5028967;28;20016;-81
2023/12/20 00:45:25;;;;;;;24.23;3.22;;;;;;;;;;5029753;28;20097;-81
2023/12/20 00:47:51;;;;;;;27.20;3.50;;;;;;;;;;5029762;28;20009;-81
2023/12/20 00:50:17;;;;;;;20.90;3.90;;;;;;;;;;5029157;28;20097;-80
2023/12/20 00:52:43;;;;;;;29.27;3.13;;;;;;;;;;5008971;28;20101;-81
2023/12/20 00:55:09;;;;;;;26.30;3.40;;;;;;;;;;5009621;28;20417;-81
2023/12/20 00:57:35;;;;;;;26.75;3.42;;;;;;;;;;5027622;28;20067;-81
2023/12/20 01:00:01;;;;;;;22.08;3.00;;;;;;;;;;5028046;28;20064;-81
2023/12/20 01:02:27;;;;;;;28.02;4.40;;;;;;;;;;5009333;28;20009;-81
2023/12/20 01:04:53;;;;;;;26.65;3.60;;;;;;;;;;5008645;28;20109;-81
2023/12/20 01:07:19;;;;;;;33.72;4.45;;;;;;;;;;5024320;28;20432;-80
2023/12/20 01:09:45;;;;;;;29.58;3.30;;;;;;;;;;5028517;28;20014;-80
2023/12/20 01:12:11;;;;;;;28.00;4.15;;;;;;;;;;5013691;28;20018;-81
2023/12/20 01:14:39;;;;;;;28.42;3.85;;;;;;;;;;5009581;28;20033;-81
2023/12/20 01:17:05;;;;;;;28.17;3.75;;;;;;;;;;5022559;28;20029;-80
2023/12/20 01:19:31;;;;;;;28.38;3.20;;;;;;;;;;5027971;28;20481;-81
2023/12/20 01:21:57;;;;;;;23.80;3.75;;;;;;;;;;5015889;28;20045;-81
2023/12/20 01:24:23;;;;;;;23.73;3.50;;;;;;;;;;5008604;28;20466;-81
2023/12/20 01:26:49;;;;;;;26.88;3.17;;;;;;;;;;5017636;28;20021;-81
2023/12/20 01:29:16;;;;;;;30.92;3.90;;;;;;;;;;5027922;28;20027;-81
2023/12/20 01:31:42;;;;;;;33.75;4.07;;;;;;;;;;5029113;28;20014;-80
2023/12/20 01:34:08;;;;;;;26.95;3.65;;;;;;;;;;5027898;28;20071;-80
2023/12/20 01:36:34;;;;;;;32.55;3.55;;;;;;;;;;5028594;28;20017;-81
2023/12/20 01:39:00;;;;;;;32.75;4.63;;;;;;;;;;5027728;28;20017;-82
2023/12/20 01:41:26;;;;;;;31.42;3.90;;;;;;;;;;5022182;28;20513;-80
2023/12/20 01:43:53;;;;;;;28.85;4.32;;;;;;;;;;5007669;28;20065;-81
2023/12/20 01:46:19;;;;;;;28.88;3.72;;;;;;;;;;5023986;28;20523;-81
2023/12/20 01:48:45;;;;;;;29.08;4.18;;;;;;;;;;5027088;28;20021;-81
2023/12/20 01:51:11;;;;;;;27.70;3.95;;;;;;;;;;5024823;28;20021;-81
2023/12/20 01:53:38;;;;;;;26.65;4.22;;;;;;;;;;5014742;28;20473;-80
2023/12/20 01:56:04;;;;;;;23.13;3.78;;;;;;;;;;5028571;28;20414;-81
2023/12/20 01:58:31;;;;;;;37.03;4.38;;;;;;;;;;5026989;28;20013;-81
2023/12/20 02:00:58;;;;;;;26.23;4.30;;;;;;;;;;5027410;28;20493;-81
2023/12/20 02:03:24;;;;;;;35.15;3.90;;;;;;;;;;5027574;28;20093;-81
2023/12/20 02:05:50;;;;;;;34.35;3.85;;;;;;;;;;5027294;28;20022;-81
2023/12/20 02:08:16;;;;;;;25.70;4.00;;;;;;;;;;5028857;28;20045;-81
2023/12/20 02:10:42;;;;;;;32.33;4.28;;;;;;;;;;5027507;28;20044;-80
2023/12/20 02:13:08;;;;;;;30.25;3.78;;;;;;;;;;5010732;28;20030;-81
2023/12/20 02:15:37;;;;;;;30.83;4.13;;;;;;;;;;5008415;28;20014;-80
2023/12/20 02:18:03;;;;;;;25.45;4.03;;;;;;;;;;5021938;28;20128;-81
2023/12/20 02:20:29;;;;;;;29.33;4.07;;;;;;;;;;5027121;28;20104;-81
2023/12/20 02:22:55;;;;;;;31.95;4.00;;;;;;;;;;5013325;28;20511;-80
2023/12/20 02:25:21;;;;;;;28.17;3.85;;;;;;;;;;5007424;28;20160;-80
2023/12/20 02:27:47;;;;;;;32.67;4.63;;;;;;;;;;5019786;28;20075;-81
2023/12/20 02:30:13;;;;;;;27.52;4.65;;;;;;;;;;5027333;28;20288;-80
2023/12/20 02:32:39;;;;;;;30.80;4.07;;;;;;;;;;5016476;28;20170;-81
2023/12/20 02:35:07;;;;;;;27.48;4.72;;;;;;;;;;5008554;28;20046;-81
2023/12/20 02:37:34;;;;;;;24.63;4.53;;;;;;;;;;5016702;28;20052;-81
2023/12/20 02:40:00;;;;;;;22.88;3.78;;;;;;;;;;5027102;28;20029;-81
2023/12/20 02:42:26;;;;;;;28.17;3.97;;;;;;;;;;5018659;28;20014;-81
2023/12/20 02:44:52;;;;;;;31.55;4.40;;;;;;;;;;5007324;28;20018;-81
2023/12/20 02:47:18;;;;;;;32.80;3.88;;;;;;;;;;5014234;28;20017;-81
2023/12/20 02:49:44;;;;;;;28.48;4.10;;;;;;;;;;5027048;28;20022;-81
2023/12/20 02:52:10;;;;;;;24.30;3.55;;;;;;;;;;5022323;28;20087;-81
2023/12/20 02:54:36;;;;;;;26.58;4.75;;;;;;;;;;5012216;28;20022;-80
2023/12/20 02:57:02;;;;;;;28.98;4.20;;;;;;;;;;5014776;28;20100;-81
2023/12/20 02:59:28;;;;;;;36.42;5.00;;;;;;;;;;5030700;28;20024;-81
2023/12/20 03:01:54;;;;;;;33.10;3.72;;;;;;;;;;5029343;28;20022;-81
2023/12/20 03:04:20;;;;;;;24.30;3.05;;;;;;;;;;5023666;28;20021;-81
2023/12/20 03:06:46;;;;;;;29.50;3.58;;;;;;;;;;5030230;28;20381;-80
2023/12/20 03:09:12;;;;;;;31.92;3.65;;;;;;;;;;5030340;28;20048;-81
2023/12/20 03:11:38;;;;;;;25.38;3.70;;;;;;;;;;5030260;28;20104;-81
2023/12/20 03:14:04;;;;;;;34.50;4.75;;;;;;;;;;5031458;28;20056;-81
2023/12/20 03:16:32;;;;;;;21.48;3.42;;;;;;;;;;5030256;28;20485;-80
2023/12/20 03:18:58;;;;;;;25.08;4.45;;;;;;;;;;5013741;28;20387;-81
2023/12/20 03:21:24;;;;;;;32.80;3.95;;;;;;;;;;5012141;28;20450;-81
2023/12/20 03:23:51;;;;;;;29.30;3.83;;;;;;;;;;5025998;28;20026;-81
2023/12/20 03:26:17;;;;;;;29.45;4.78;;;;;;;;;;5030077;28;20142;-81
2023/12/20 03:28:43;;;;;;;35.97;4.90;;;;;;;;;;5017190;28;20024;-81
2023/12/20 03:31:10;;;;;;;27.58;3.67;;;;;;;;;;5010234;28;20109;-81
2023/12/20 03:33:36;;;;;;;31.58;4.07;;;;;;;;;;5024853;28;20156;-81
2023/12/20 03:36:02;;;;;;;30.23;4.82;;;;;;;;;;5030038;28;20010;-81
2023/12/20 03:38:28;;;;;;;22.02;3.40;;;;;;;;;;5019703;28;20025;-81
2023/12/20 03:40:55;;;;;;;28.55;3.60;;;;;;;;;;5009962;28;20021;-80
2023/12/20 03:43:21;;;;;;;21.33;3.50;;;;;;;;;;5020134;28;20017;-81
2023/12/20 03:45:47;;;;;;;32.22;4.18;;;;;;;;;;5030206;28;20028;-81
2023/12/20 03:48:13;;;;;;;23.27;3.22;;;;;;;;;;5030742;28;20025;-81
2023/12/20 03:50:39;;;;;;;34.97;6.13;;;;;;;;;;5031017;28;20018;-80
2023/12/20 03:53:05;;;;;;;32.78;4.45;;;;;;;;;;5029022;28;20543;-81
2023/12/20 03:55:31;;;;;;;30.13;3.60;;;;;;;;;;5030522;28;20036;-81
2023/12/20 03:57:57;;;;;;;34.63;5.13;;;;;;;;;;5029479;28;20018;-81
2023/12/20 04:00:23;;;;;;;28.80;3.78;;;;;;;;;;5029840;28;20013;-81
2023/12/20 04:02:49;;;;;;;23.30;4.10;;;;;;;;;;5024587;28;20017;-81
2023/12/20 04:05:15;;;;;;;25.90;3.53;;;;;;;;;;5009908;28;20016;-81
2023/12/20 04:07:41;;;;;;;25.58;3.72;;;;;;;;;;5009950;28;20108;-81
2023/12/20 04:10:08;;;;;;;26.13;5.28;;;;;;;;;;5029345;28;20010;-80
2023/12/20 04:12:34;;;;;;;25.08;4.00;;;;;;;;;;5027812;28;20009;-81
2023/12/20 04:15:00;;;;;;;25.17;3.70;;;;;;;;;;5009660;28;20026;-80
2023/12/20 04:17:26;;;;;;;28.80;4.00;;;;;;;;;;5010366;28;20119;-81
2023/12/20 04:19:52;;;;;;;24.92;3.65;;;;;;;;;;5030281;28;20494;-81
2023/12/20 04:22:19;;;;;;;19.17;3.30;;;;;;;;;;5029229;28;20552;-80
2023/12/20 04:24:45;;;;;;;24.92;3.78;;;;;;;;;;5012145;28;20014;-80
2023/12/20 04:27:11;;;;;;;28.88;3.55;;;;;;;;;;5009856;28;20075;-80
2023/12/20 04:29:37;;;;;;;23.55;3.88;;;;;;;;;;5027501;28;20049;-81
2023/12/20 04:32:04;;;;;;;25.48;4.22;;;;;;;;;;5030747;28;20053;-81
2023/12/20 04:34:30;;;;;;;20.88;3.85;;;;;;;;;;5014853;28;20076;-81
2023/12/20 04:36:56;;;;;;;23.17;3.50;;;;;;;;;;5018491;28;20484;-81
2023/12/20 04:39:22;;;;;;;23.73;3.10;;;;;;;;;;5028619;28;20017;-81
2023/12/20 04:41:48;;;;;;;23.20;4.20;;;;;;;;;;5028785;28;20124;-80
2023/12/20 04:44:14;;;;;;;27.85;4.72;;;;;;;;;;5021019;28;20054;-81
2023/12/20 04:46:40;;;;;;;24.55;4.45;;;;;;;;;;5028700;28;20326;-81
2023/12/20 04:49:06;;;;;;;19.45;3.45;;;;;;;;;;5029780;28;20017;-81
2023/12/20 04:51:35;;;;;;;23.13;3.42;;;;;;;;;;5028456;28;20026;-81
2023/12/20 04:54:02;;;;;;;24.98;3.90;;;;;;;;;;5019896;28;20032;-81
2023/12/20 04:56:28;;;;;;;27.83;3.92;;;;;;;;;;5010038;28;20018;-81
2023/12/20 04:58:54;;;;;;;29.98;3.80;;;;;;;;;;5018111;28;20114;-81
2023/12/20 05:01:21;;;;;;;21.38;3.15;;;;;;;;;;5029632;28;20021;-81
2023/12/20 05:03:47;;;;;;;38.28;4.97;;;;;;;;;;5022330;28;20497;-85
2023/12/20 05:06:13;;;;;;;20.77;3.53;;;;;;;;;;5012628;28;20029;-85
2023/12/20 05:08:39;;;;;;;29.77;4.88;;;;;;;;;;5029884;28;20013;-86
2023/12/20 05:11:05;;;;;;;28.25;3.95;;;;;;;;;;5029963;28;20021;-85
2023/12/20 05:13:31;;;;;;;24.73;3.38;;;;;;;;;;5024752;28;20105;-86
2023/12/20 05:15:57;;;;;;;29.02;3.60;;;;;;;;;;5004771;28;20187;-85
2023/12/20 05:18:23;;;;;;;24.98;3.83;;;;;;;;;;5004902;28;20057;-85
2023/12/20 05:20:50;;;;;;;24.73;4.00;;;;;;;;;;5004385;28;20028;-86
2023/12/20 05:23:17;;;;;;;22.70;3.17;;;;;;;;;;5006769;28;20018;-86
2023/12/20 05:25:43;;;;;;;24.25;4.00;;;;;;;;;;5008370;28;20025;-85
2023/12/20 05:28:09;;;;;;;22.88;3.58;;;;;;;;;;5006177;28;20018;-85
2023/12/20 05:30:35;;;;;;;24.40;3.97;;;;;;;;;;5004302;28;20614;-85
2023/12/20 05:33:01;;;;;;;23.20;3.38;;;;;;;;;;5007744;28;20034;-86
2023/12/20 05:35:27;;;;;;;25.08;3.60;;;;;;;;;;5019375;28;20018;-85
2023/12/20 05:37:53;;;;;;;22.83;4.53;;;;;;;;;;5028827;28;20028;-82
2023/12/20 05:40:19;;;;;;;22.00;3.13;;;;;;;;;;5027450;28;20017;-86
2023/12/20 05:42:45;;;;;;;22.83;3.25;;;;;;;;;;5009366;28;20670;-82
2023/12/20 05:45:11;;;;;;;21.95;3.15;;;;;;;;;;5019269;28;20472;-81
2023/12/20 05:47:37;;;;;;;20.80;3.95;;;;;;;;;;5028518;28;20496;-83
2023/12/20 05:50:04;;;;;;;19.08;2.65;;;;;;;;;;5009048;28;20038;-83
2023/12/20 05:52:30;;;;;;;24.30;4.25;;;;;;;;;;4999552;28;20469;-82
2023/12/20 05:54:57;;;;;;;26.95;3.85;;;;;;;;;;5007551;28;20057;-84
2023/12/20 05:57:23;;;;;;;23.05;3.17;;;;;;;;;;5009151;28;20026;-86
2023/12/20 05:59:49;;;;;;;12.52;2.50;;;;;;;;;;5008384;28;20041;-84
2023/12/20 06:02:15;;;;;;;23.27;3.53;;;;;;;;;;5008834;28;20225;-84
2023/12/20 06:04:45;;;;;;;16.27;3.38;;;;;;;;;;5007438;28;20486;-84
2023/12/20 06:07:14;;;;;;;24.15;4.90;;;;;;;;;;5022386;28;20478;-83
2023/12/20 06:09:40;;;;;;;23.13;3.75;;;;;;;;;;5027664;28;20063;-82
2023/12/20 06:12:08;;;;;;;22.58;3.50;;;;;;;;;;5027924;28;20025;-82
2023/12/20 06:14:34;;;;;;;21.60;3.35;;;;;;;;;;5027337;28;20478;-82
2023/12/20 06:17:01;;;;;;;21.35;3.60;;;;;;;;;;5006691;28;20281;-82
2023/12/20 06:19:27;;;;;;;19.98;3.45;;;;;;;;;;5013665;28;20009;-83
2023/12/20 06:21:53;;;;;;;23.17;4.28;;;;;;;;;;5027400;28;20025;-82
2023/12/20 06:24:20;;;;;;;24.63;4.03;;;;;;;;;;5027377;28;20021;-82
2023/12/20 06:26:46;;;;;;;21.88;3.45;;;;;;;;;;5026890;28;20017;-82
2023/12/20 06:29:12;;;;;;;20.15;3.80;;;;;;;;;;5032790;28;20024;-82
2023/12/20 06:31:38;;;;;;;23.85;3.30;;;;;;;;;;5003913;28;20030;-82
2023/12/20 06:34:04;;;;;;;21.45;3.53;;;;;;;;;;5014375;28;20029;-82
2023/12/20 06:36:30;;;;;;;21.55;3.58;;;;;;;;;;5011603;28;20524;-82
2023/12/20 06:38:57;;;;;;;16.50;3.33;;;;;;;;;;5011605;28;20084;-82
2023/12/20 06:41:24;;;;;;;21.50;3.25;;;;;;;;;;5006781;28;20442;-82
2023/12/20 06:43:51;;;;;;;22.52;3.55;;;;;;;;;;4995388;28;20093;-82
2023/12/20 06:46:17;;;;;;;20.33;3.45;;;;;;;;;;4997520;28;20026;-82
2023/12/20 06:48:43;;;;;;;24.58;3.42;;;;;;;;;;5001034;28;20014;-82
2023/12/20 06:51:11;;;;;;;20.42;3.97;;;;;;;;;;5000551;28;20801;-82
2023/12/20 06:53:37;;;;;;;21.83;3.15;;;;;;;;;;5031592;28;20485;-81
2023/12/20 06:56:03;;;;;;;22.83;3.53;;;;;;;;;;5006286;28;20014;-82
2023/12/20 06:58:29;;;;;;;19.67;3.72;;;;;;;;;;5016176;28;20013;-82
2023/12/20 07:00:55;;;;;;;22.98;4.00;;;;;;;;;;5012839;28;20540;-82
2023/12/20 07:03:21;;;;;;;18.13;3.47;;;;;;;;;;5009767;28;20033;-82
2023/12/20 07:05:47;;;;;;;23.65;4.20;;;;;;;;;;5012394;28;20049;-82
2023/12/20 07:08:15;;;;;;;21.15;2.97;;;;;;;;;;5005302;28;20501;-82
2023/12/20 07:10:41;;;;;;;17.17;3.00;;;;;;;;;;5009337;28;20026;-87
2023/12/20 07:13:07;;;;;;;26.05;3.85;;;;;;;;;;5008862;28;20018;-89
2023/12/20 07:15:34;;;;;;;18.40;3.80;;;;;;;;;;5008415;28;20030;-90
2023/12/20 07:18:00;;;;;;;19.63;3.30;;;;;;;;;;5009661;28;20038;-91
2023/12/20 07:20:26;;;;;;;23.25;3.28;;;;;;;;;;5017331;28;20013;-89
2023/12/20 07:22:52;;;;;;;21.30;4.18;;;;;;;;;;5013098;28;20485;-89
2023/12/20 07:25:20;;;;;;;19.30;3.38;;;;;;;;;;5000299;28;20104;-87
2023/12/20 07:27:46;;;;;;;21.23;3.50;;;;;;;;;;5031530;28;20017;-86
2023/12/20 07:30:12;;;;;;;19.10;3.47;;;;;;;;;;5024268;28;20502;-91
2023/12/20 07:32:38;;;;;;;20.60;3.75;;;;;;;;;;5024349;28;20416;-82
2023/12/20 07:35:05;;;;;;;21.45;3.60;;;;;;;;;;5010327;28;20391;-85
2023/12/20 07:37:31;;;;;;;24.30;4.25;;;;;;;;;;5005996;28;20504;-86
2023/12/20 07:39:57;;;;;;;24.92;4.80;;;;;;;;;;5008329;28;20045;-86
2023/12/20 07:42:23;;;;;;;17.92;3.08;;;;;;;;;;5003163;28;20296;-86
2023/12/20 07:44:49;;;;;;;18.65;3.30;;;;;;;;;;5003465;28;20021;-85
2023/12/20 07:47:18;;;;;;;24.15;3.60;;;;;;;;;;5011597;28;20026;-86
2023/12/20 07:49:44;;;;;;;21.65;4.20;;;;;;;;;;5022869;28;20547;-83
2023/12/20 07:52:10;;;;;;;24.30;3.97;;;;;;;;;;5013163;28;20030;-85
2023/12/20 07:54:36;;;;;;;25.00;3.50;;;;;;;;;;5008605;28;20026;-85
2023/12/20 07:57:02;;;;;;;21.98;4.43;;;;;;;;;;5006164;28;20022;-85
2023/12/20 07:59:28;;;;;;;18.90;3.38;;;;;;;;;;5023805;28;20112;-85
2023/12/20 08:01:54;;;;;;;29.40;3.88;;;;;;;;;;5014874;28;20125;-81
2023/12/20 08:04:20;;;;;;;18.33;2.92;;;;;;;;;;5008538;28;20274;-80
2023/12/20 08:06:46;;;;;;;22.88;4.00;;;;;;;;;;5035685;28;20025;-89
2023/12/20 08:09:12;;;;;;;21.75;3.60;;;;;;;;;;5027906;28;20045;-84
2023/12/20 08:11:38;;;;;;;17.85;3.70;;;;;;;;;;5006763;28;20026;-84
2023/12/20 08:14:04;;;;;;;18.85;3.38;;;;;;;;;;5023559;28;20025;-84
2023/12/20 08:16:30;;;;;;;23.33;3.35;;;;;;;;;;5008824;28;20042;-84
2023/12/20 08:18:56;;;;;;;22.13;3.17;;;;;;;;;;5010958;28;20030;-84
2023/12/20 08:21:22;;;;;;;19.65;3.30;;;;;;;;;;5017178;28;20029;-85
2023/12/20 08:23:49;;;;;;;23.00;2.83;;;;;;;;;;5008747;28;20018;-84
2023/12/20 08:26:20;;;;;;;19.40;2.65;;;;;;;;;;5011343;28;20099;-84
2023/12/20 08:28:46;;;;;;;19.38;3.45;;;;;;;;;;5013643;28;20109;-84
2023/12/20 08:31:16;;;;;;;18.42;3.40;;;;;;;;;;5032800;28;20025;-84
2023/12/20 08:33:42;;;;;;;21.02;3.60;;;;;;;;;;5005683;28;20063;-83
2023/12/20 08:36:08;;;;;;;17.83;3.35;;;;;;;;;;5006081;28;20022;-84
2023/12/20 08:38:34;;;;;;;15.13;3.00;;;;;;;;;;5003044;28;20009;-84
2023/12/20 08:41:01;;;;;;;17.92;3.35;;;;;;;;;;5010482;28;20033;-84
2023/12/20 08:43:27;;;;;;;23.95;4.30;;;;;;;;;;5011834;28;20017;-84
2023/12/20 08:45:53;;;;;;;19.90;3.92;;;;;;;;;;5024637;28;20077;-84
2023/12/20 08:48:19;;;;;;;18.67;3.75;;;;;;;;;;5012005;28;20041;-84
2023/12/20 08:50:47;;;;;;;18.92;3.35;;;;;;;;;;5016788;28;20161;-83
2023/12/20 08:53:13;;;;;;;29.55;4.18;;;;;;;;;;5008058;28;20079;-83
2023/12/20 08:55:39;;;;;;;25.95;4.85;;;;;;;;;;5023077;28;20097;-83
2023/12/20 08:58:06;;;;;;;16.00;3.33;;;;;;;;;;5030763;28;20030;-83
2023/12/20 09:00:32;;;;;;;18.13;3.50;;;;;;;;;;5015955;28;20006;-83
2023/12/20 09:02:59;;;;;;;30.05;5.05;;;;;;;;;;5011915;28;20029;-83
2023/12/20 09:05:25;;;;;;;24.92;4.47;;;;;;;;;;5006687;28;20025;-83
2023/12/20 09:07:51;;;;;;;16.05;2.92;;;;;;;;;;5007420;28;20022;-83
2023/12/20 09:10:21;;;;;;;7.90;1.52;;;;;;;;;;5016434;28;20022;-84
2023/12/20 09:12:48;;;;;;;7.65;1.10;;;;;;;;;;5005634;28;20049;-83
2023/12/20 09:15:14;;;;;;;9.07;1.45;;;;;;;;;;5003001;28;20021;-83
2023/12/20 09:17:41;;;;;;;9.23;1.23;;;;;;;;;;5003151;28;20038;-83
2023/12/20 09:20:08;;;;;;;7.80;1.30;;;;;;;;;;4999092;28;20447;-83
2023/12/20 09:22:34;;;;;;;6.82;0.90;;;;;;;;;;5003271;28;20113;-83
2023/12/20 09:25:01;;;;;;;9.52;1.88;;;;;;;;;;5006320;28;20025;-84
2023/12/20 09:27:28;;;;;;;7.05;1.08;;;;;;;;;;5002118;28;20041;-84
2023/12/20 09:29:54;;;;;;;16.90;1.42;;;;;;;;;;5004681;28;20095;-83
2023/12/20 09:32:23;;;;;;;11.85;1.67;;;;;;;;;;5006070;28;20038;-83
2023/12/20 09:34:49;;;;;;;17.27;1.67;;;;;;;;;;5004101;28;20466;-84
2023/12/20 09:37:15;;;;;;;16.35;2.72;;;;;;;;;;5004891;28;20026;-84
2023/12/20 09:39:41;;;;;;;10.35;1.52;;;;;;;;;;5007666;28;20030;-84
2023/12/20 09:42:07;;;;;;;11.13;1.35;;;;;;;;;;5001275;28;20034;-83
2023/12/20 09:44:37;;;;;;;10.77;1.77;;;;;;;;;;5000597;28;20040;-84
2023/12/20 09:47:04;;;;;;;6.28;1.25;;;;;;;;;;5003405;28;20026;-83
2023/12/20 09:49:31;;;;;;;10.30;1.98;;;;;;;;;;5022816;28;20514;-84
2023/12/20 09:51:57;;;;;;;8.35;1.08;;;;;;;;;;5018153;28;20029;-83
2023/12/20 09:54:23;;;;;;;12.55;1.40;;;;;;;;;;5012404;28;20018;-83
2023/12/20 09:56:50;;;;;;;9.65;1.38;;;;;;;;;;4999839;28;20018;-83
2023/12/20 09:59:16;;;;;;;7.03;1.20;;;;;;;;;;5006830;28;20025;-84
2023/12/20 10:01:42;;;;;;;10.38;1.27;;;;;;;;;;5007459;28;20029;-83
2023/12/20 10:04:11;;;;;;;14.75;1.33;;;;;;;;;;5006459;28;20022;-83
2023/12/20 10:06:38;;;;;;;11.73;1.42;;;;;;;;;;5007417;28;20481;-83
2023/12/20 10:09:04;;;;;;;10.35;1.38;;;;;;;;;;5010427;28;20028;-84
2023/12/20 10:11:30;;;;;;;13.48;1.60;;;;;;;;;;5007264;28;20092;-84
2023/12/20 10:14:03;;;;;;;12.88;2.20;;;;;;;;;;5008437;28;20112;-83
2023/12/20 10:16:29;;;;;;;13.07;1.83;;;;;;;;;;5007302;28;20370;-83
2023/12/20 10:18:56;;;;;;;11.80;1.98;;;;;;;;;;5008572;28;20026;-84
2023/12/20 10:21:29;;;;;;;17.58;1.67;;;;;;;;;;5006234;28;20101;-84
2023/12/20 10:23:55;;;;;;;14.65;1.75;;;;;;;;;;5011717;28;20030;-84
2023/12/20 10:26:25;;;;;;;8.05;1.35;;;;;;;;;;5007369;28;20026;-84
2023/12/20 10:28:55;;;;;;;12.57;1.92;;;;;;;;;;5010101;28;20014;-84
2023/12/20 10:31:28;;;;;;;11.07;1.70;;;;;;;;;;5022855;28;20021;-84
2023/12/20 10:33:54;;;;;;;11.88;1.83;;;;;;;;;;5008288;28;20040;-83
2023/12/20 10:36:21;;;;;;;17.25;1.85;;;;;;;;;;5006993;28;20030;-85
2023/12/20 10:38:49;;;;;;;10.02;1.60;;;;;;;;;;5011109;28;20136;-82
2023/12/20 10:41:17;;;;;;;10.63;1.38;;;;;;;;;;5005444;28;20025;-82
2023/12/20 10:43:43;;;;;;;13.77;1.95;;;;;;;;;;5010439;28;20018;-83
2023/12/20 10:46:09;;;;;;;7.68;1.40;;;;;;;;;;5013518;28;20068;-79
2023/12/20 10:48:35;;;;;;;10.32;1.80;;;;;;;;;;5013684;28;20045;-79
2023/12/20 10:51:01;;;;;;;14.23;2.40;;;;;;;;;;5007613;28;20068;-79
2023/12/20 10:53:28;;;;;;;10.02;1.45;;;;;;;;;;5012663;28;20030;-79
2023/12/20 10:55:59;;;;;;;10.70;2.00;;;;;;;;;;5004222;28;20080;-79
2023/12/20 10:58:26;;;;;;;15.35;1.90;;;;;;;;;;5018393;28;20117;-79
2023/12/20 11:00:57;;;;;;;13.23;1.77;;;;;;;;;;5001113;28;20057;-79
2023/12/20 11:03:24;;;;;;;14.35;3.38;;;;;;;;;;5002082;28;20025;-79
2023/12/20 11:05:59;;;;;;;13.38;3.47;;;;;;;;;;5009040;28;20045;-80
2023/12/20 11:08:32;;;;;;;20.63;6.72;;;;;;;;;;5024817;28;20113;-79
2023/12/20 11:11:09;;;;;;;18.95;4.93;;;;;;;;;;5012219;28;20746;-79
2023/12/20 11:13:41;;;;;;;16.45;3.72;;;;;;;;;;5000217;28;20037;-79
2023/12/20 11:16:08;;;;;;;23.25;3.85;;;;;;;;;;5020272;28;20028;-79
2023/12/20 11:18:34;;;;;;;17.30;3.67;;;;;;;;;;5001896;28;20165;-79
2023/12/20 11:21:05;;;;;;;18.38;3.42;;;;;;;;;;5004190;28;20017;-79
2023/12/20 11:23:34;;;;;;;12.82;2.47;;;;;;;;;;5001294;28;20378;-79
2023/12/20 11:26:00;;;;;;;14.85;2.75;;;;;;;;;;5005050;28;20021;-79
2023/12/20 11:28:26;;;;;;;8.70;1.70;;;;;;;;;;5004823;28;20029;-79
2023/12/20 11:30:59;;;;;;;13.68;2.45;;;;;;;;;;5004392;28;20152;-79
2023/12/20 11:33:48;;;;;;;17.50;2.60;;;;;;;;;;5016245;28;20026;-79
2023/12/20 11:36:20;;;;;;;11.77;1.58;;;;;;;;;;5009659;28;20037;-78
2023/12/20 11:38:55;;;;;;;15.65;1.75;;;;;;;;;;5012928;28;20409;-77
2023/12/20 11:41:23;;;;;;;12.68;2.28;;;;;;;;;;5024446;28;20084;-80
2023/12/20 11:43:52;;;;;;;14.30;2.05;;;;;;;;;;5006891;28;20022;-79
2023/12/20 11:46:18;;;;;;;10.27;1.85;;;;;;;;;;5007292;28;20079;-79
2023/12/20 11:48:45;;;;;;;13.73;2.50;;;;;;;;;;5003257;28;20036;-79
2023/12/20 11:51:11;;;;;;;16.75;1.90;;;;;;;;;;5003523;28;20029;-89
2023/12/20 11:53:38;;;;;;;9.52;1.52;;;;;;;;;;5007901;28;20026;-87
2023/12/20 11:56:04;;;;;;;11.57;1.40;;;;;;;;;;5007708;28;20033;-89
2023/12/20 11:58:30;;;;;;;10.30;1.40;;;;;;;;;;5010428;28;20064;-88
2023/12/20 12:00:57;;;;;;;10.07;1.48;;;;;;;;;;5004660;28;20112;-88
2023/12/20 12:03:23;;;;;;;7.53;1.80;;;;;;;;;;5009850;28;20104;-88
2023/12/20 12:05:50;;;;;;;6.40;1.70;;;;;;;;;;5008044;28;20477;-88
2023/12/20 12:08:16;;;;;;;8.98;1.25;;;;;;;;;;5008465;28;20105;-87
2023/12/20 12:10:43;;;;;;;7.28;1.35;;;;;;;;;;5008817;28;20405;-88
2023/12/20 12:13:09;;;;;;;10.18;1.23;;;;;;;;;;5010296;28;20044;-88
2023/12/20 12:15:36;;;;;;;10.55;1.45;;;;;;;;;;5005234;28;20545;-86
2023/12/20 12:18:03;;;;;;;8.65;1.00;;;;;;;;;;5010922;28;20045;-87
2023/12/20 12:20:29;;;;;;;11.32;1.15;;;;;;;;;;5011333;28;20097;-87
2023/12/20 12:23:14;;;;;;;7.80;0.98;;;;;;;;;;5005490;28;20022;-88
2023/12/20 12:25:40;;;;;;;5.93;1.00;;;;;;;;;;5004021;28;20078;-87
2023/12/20 12:28:07;;;;;;;11.38;2.03;;;;;;;;;;5005298;28;20029;-87
2023/12/20 12:30:33;;;;;;;11.93;1.35;;;;;;;;;;5009179;28;20025;-87
2023/12/20 12:32:59;;;;;;;7.40;0.80;;;;;;;;;;5024289;28;20013;-87
2023/12/20 12:35:25;;;;;;;7.30;0.95;;;;;;;;;;5007628;28;20025;-86
2023/12/20 12:37:52;;;;;;;9.43;1.45;;;;;;;;;;5006340;28;20124;-87
2023/12/20 12:40:18;;;;;;;6.97;0.85;;;;;;;;;;5008115;28;20112;-87
2023/12/20 12:42:45;;;;;;;9.38;1.30;;;;;;;;;;5007367;28;20072;-87
2023/12/20 12:45:11;;;;;;;6.60;1.20;;;;;;;;;;5006564;28;20026;-87
2023/12/20 12:47:38;;;;;;;11.00;1.30;;;;;;;;;;5008597;28;20030;-86
2023/12/20 12:50:04;;;;;;;7.65;1.20;;;;;;;;;;5008651;28;20474;-86
2023/12/20 12:52:31;;;;;;;9.18;0.93;;;;;;;;;;5026876;28;20041;-87
2023/12/20 12:54:57;;;;;;;8.68;1.10;;;;;;;;;;5009588;28;20030;-87
2023/12/20 12:57:23;;;;;;;9.85;1.40;;;;;;;;;;5012011;28;20025;-87
2023/12/20 12:59:50;;;;;;;6.50;0.82;;;;;;;;;;5016451;28;20022;-87
2023/12/20 13:02:16;;;;;;;11.75;1.10;;;;;;;;;;5006934;28;20025;-83
2023/12/20 13:04:43;;;;;;;8.57;1.02;;;;;;;;;;5018039;28;20352;-84
2023/12/20 13:07:11;;;;;;;17.10;2.00;;;;;;;;;;5016123;28;20029;-84
2023/12/20 13:09:37;;;;;;;14.38;1.58;;;;;;;;;;5017291;28;20093;-84
2023/12/20 13:12:04;;;;;;;9.02;1.90;;;;;;;;;;5015569;28;20501;-84
2023/12/20 13:14:32;;;;;;;11.32;1.08;;;;;;;;;;5011855;28;20116;-84
2023/12/20 13:16:58;;;;;;;10.38;1.65;;;;;;;;;;5005194;28;20049;-85
2023/12/20 13:19:24;;;;;;;10.07;1.30;;;;;;;;;;5008487;28;20022;-84
2023/12/20 13:21:50;;;;;;;15.43;2.00;;;;;;;;;;5006462;28;20317;-84
2023/12/20 13:24:16;;;;;;;15.18;3.33;;;;;;;;;;5022743;28;20157;-85
2023/12/20 13:26:42;;;;;;;12.63;2.47;;;;;;;;;;5019713;28;20021;-84
2023/12/20 13:29:08;;;;;;;8.52;1.20;;;;;;;;;;5001302;28;20029;-84
2023/12/20 13:31:36;;;;;;;7.13;1.10;;;;;;;;;;5001568;28;20044;-84
2023/12/20 13:34:02;;;;;;;8.70;1.00;;;;;;;;;;5005892;28;20026;-84
2023/12/20 13:36:28;;;;;;;10.05;1.10;;;;;;;;;;5011622;28;20520;-84
2023/12/20 13:38:54;;;;;;;5.28;1.52;;;;;;;;;;5007533;28;20017;-84
2023/12/20 13:41:20;;;;;;;11.68;1.27;;;;;;;;;;5031327;28;20049;-85
2023/12/20 13:43:46;;;;;;;11.60;1.05;;;;;;;;;;5011643;28;20072;-84
2023/12/20 13:46:13;;;;;;;10.75;1.20;;;;;;;;;;5026365;28;20040;-84
2023/12/20 13:48:39;;;;;;;11.57;1.80;;;;;;;;;;5012559;28;20084;-84
2023/12/20 13:51:06;;;;;;;11.57;1.10;;;;;;;;;;5021213;28;20030;-84
2023/12/20 13:53:32;;;;;;;10.05;1.15;;;;;;;;;;5006029;28;20114;-85
2023/12/20 13:55:59;;;;;;;13.85;1.20;;;;;;;;;;5012549;28;20046;-85
2023/12/20 13:58:25;;;;;;;12.45;1.50;;;;;;;;;;5006534;28;20020;-85
2023/12/20 14:00:51;;;;;;;10.57;1.20;;;;;;;;;;5008711;28;20021;-85
2023/12/20 14:03:19;;;;;;;13.85;1.83;;;;;;;;;;5006772;28;20145;-84
2023/12/20 14:05:45;;;;;;;18.13;2.42;;;;;;;;;;5007647;28;20006;-85
2023/12/20 14:08:11;;;;;;;20.48;3.05;;;;;;;;;;5006722;28;20037;-85
2023/12/20 14:10:38;;;;;;;22.30;3.45;;;;;;;;;;5013410;28;20068;-85
2023/12/20 14:13:05;;;;;;;24.35;3.78;;;;;;;;;;5012396;28;20017;-84
2023/12/20 14:15:36;;;;;;;21.65;2.75;;;;;;;;;;5027621;28;20033;-85
2023/12/20 14:18:03;;;;;;;25.10;3.17;;;;;;;;;;5011528;28;20509;-84
2023/12/20 14:20:29;;;;;;;18.92;2.97;;;;;;;;;;5006932;28;20022;-85
2023/12/20 14:22:55;;;;;;;20.38;3.20;;;;;;;;;;5006399;28;20390;-84
2023/12/20 14:25:23;;;;;;;20.13;3.78;;;;;;;;;;5005882;28;20045;-85
2023/12/20 14:27:49;;;;;;;17.90;2.53;;;;;;;;;;5022897;28;20057;-84